createdAt,value
2018-09-24T00:08:13.530Z,22.2
2018-09-24T00:18:12.768Z,22.1
2018-09-24T00:28:12.000Z,22.1
2018-09-24T00:38:11.231Z,22
2018-09-24T00:48:10.470Z,21.9
2018-09-24T00:58:09.696Z,21.9
2018-09-24T01:08:09.029Z,21.9
2018-09-24T01:18:08.155Z,21.9
2018-09-24T01:28:07.442Z,21.8
2018-09-24T01:38:06.625Z,21.8
2018-09-24T01:48:05.858Z,21.7
2018-09-24T01:58:05.089Z,21.6
2018-09-24T02:08:04.315Z,21.6
2018-09-24T02:18:03.551Z,21.6
2018-09-24T02:28:02.782Z,21.5
2018-09-24T02:38:02.015Z,21.4
2018-09-24T02:48:01.246Z,21.4
2018-09-24T02:58:00.477Z,21.4
2018-09-24T03:07:59.707Z,21.4
2018-09-24T03:17:58.943Z,21.3
2018-09-24T03:27:58.169Z,21.3
2018-09-24T03:37:57.402Z,21.3
2018-09-24T03:47:56.633Z,21.3
2018-09-24T03:57:55.863Z,21.3
2018-09-24T04:07:55.093Z,21.2
2018-09-24T04:17:54.322Z,21.2
2018-09-24T04:27:53.556Z,21.2
2018-09-24T04:37:52.787Z,21.2
2018-09-24T04:47:52.023Z,20.9
2018-09-24T04:57:51.247Z,20.4
2018-09-24T05:07:50.486Z,20.2
2018-09-24T05:17:49.710Z,20.3
2018-09-24T05:27:48.942Z,20.6
2018-09-24T05:37:48.173Z,21.1
2018-09-24T05:47:47.416Z,21.5
2018-09-24T05:57:46.641Z,22
2018-09-24T06:07:45.871Z,22.4
2018-09-24T06:17:45.153Z,22.8
2018-09-24T06:27:44.340Z,23.2
2018-09-24T06:37:43.567Z,23.3
2018-09-24T06:47:42.807Z,23.4
2018-09-24T06:57:42.026Z,23.6
2018-09-24T07:07:41.264Z,23.9
2018-09-24T07:17:40.541Z,24.2
2018-09-24T07:27:39.748Z,24.3
2018-09-24T07:37:38.967Z,24.4
2018-09-24T07:47:38.190Z,24.6
2018-09-24T07:57:37.423Z,24.8
2018-09-24T08:07:36.795Z,24.9
2018-09-24T08:17:35.892Z,25.1
2018-09-24T08:27:35.124Z,25.4
2018-09-24T08:37:34.352Z,25.5
2018-09-24T08:47:33.590Z,25.7
2018-09-24T08:57:32.816Z,25.9
2018-09-24T09:07:32.058Z,26.1
2018-09-24T09:17:31.288Z,26.2
2018-09-24T09:27:30.522Z,26.3
2018-09-24T09:37:29.753Z,26.4
2018-09-24T09:47:28.990Z,26.6
2018-09-24T09:57:28.224Z,26.8
2018-09-24T10:07:27.461Z,26.9
2018-09-24T10:17:26.686Z,27
2018-09-24T10:27:25.922Z,27
2018-09-24T10:37:25.155Z,27.1
2018-09-24T10:47:24.439Z,27.1
2018-09-24T10:57:23.624Z,27.1
2018-09-24T11:07:22.857Z,27.1
2018-09-24T11:17:22.269Z,27
2018-09-24T11:27:21.330Z,27
2018-09-24T11:37:20.554Z,26.9
2018-09-24T11:47:19.789Z,26.9
2018-09-24T11:57:19.020Z,26.9
2018-09-24T12:07:18.255Z,26.6
2018-09-24T12:17:17.487Z,26.2
2018-09-24T12:27:16.725Z,25.8
2018-09-24T12:37:15.953Z,25.4
2018-09-24T12:47:15.186Z,25
2018-09-24T12:57:14.429Z,24.7
2018-09-24T13:07:13.651Z,24.4
2018-09-24T13:17:12.882Z,24.1
2018-09-24T13:27:12.130Z,23.6
2018-09-24T13:37:11.356Z,23.5
2018-09-24T13:47:10.589Z,23.6
2018-09-24T13:57:09.812Z,23.6
2018-09-24T14:07:09.044Z,23.8
2018-09-24T14:17:08.274Z,23.9
2018-09-24T14:27:07.516Z,23.9
2018-09-24T14:37:06.741Z,23.7
2018-09-24T14:47:05.981Z,23.4
2018-09-24T14:57:05.217Z,23.1
2018-09-24T15:07:04.454Z,23
2018-09-24T15:17:03.682Z,22.7
2018-09-24T15:27:02.917Z,22.2
2018-09-24T15:37:02.151Z,21.9
2018-09-24T15:47:01.385Z,21.6
2018-09-24T15:57:00.616Z,21.2
2018-09-24T16:06:59.858Z,20.4
2018-09-24T16:16:59.085Z,19.7
2018-09-24T16:26:58.322Z,19.2
2018-09-24T16:36:57.602Z,19.1
2018-09-24T16:46:56.842Z,18.8
2018-09-24T16:56:56.025Z,18.8
2018-09-24T17:06:55.265Z,18.5
2018-09-24T17:16:54.489Z,18
2018-09-24T17:26:53.730Z,17.6
2018-09-24T17:36:52.959Z,17.3
2018-09-24T17:46:52.187Z,17.1
2018-09-24T17:56:51.419Z,17.3
2018-09-24T18:06:50.658Z,17.3
2018-09-24T18:16:49.893Z,17.9
2018-09-24T18:26:49.127Z,18.8
2018-09-24T18:36:48.360Z,19.4
2018-09-24T18:46:47.590Z,18.6
2018-09-24T18:56:46.878Z,18.3
2018-09-24T19:06:46.062Z,19.4
2018-09-24T19:16:45.295Z,20.4
2018-09-24T19:26:44.523Z,20.9
2018-09-24T19:36:43.823Z,20.8
2018-09-24T19:46:42.992Z,20.6
2018-09-24T19:56:42.225Z,20.4
2018-09-24T20:06:41.459Z,20.3
2018-09-24T20:16:40.770Z,19.1
2018-09-24T20:26:39.921Z,19
2018-09-24T20:36:39.152Z,19.4
2018-09-24T20:46:38.387Z,19.9
2018-09-24T20:56:37.617Z,20.1
2018-09-24T21:06:36.847Z,20.3
2018-09-24T21:16:36.086Z,20.1
2018-09-24T21:26:35.314Z,19.8
2018-09-24T21:36:34.544Z,19.6
2018-09-24T21:46:33.996Z,19.5
2018-09-24T21:56:33.056Z,19.4
2018-09-24T22:06:32.231Z,19.4
2018-09-24T22:16:31.467Z,19.4
2018-09-24T22:26:30.693Z,19.4
2018-09-24T22:36:29.929Z,19.4
2018-09-24T22:46:29.204Z,19.3
2018-09-24T22:56:28.383Z,19.4
2018-09-24T23:06:27.620Z,19.4
2018-09-24T23:16:26.846Z,19.3
2018-09-24T23:26:26.081Z,19.3
2018-09-24T23:36:25.317Z,19.3
2018-09-24T23:46:24.542Z,19.3
2018-09-24T23:56:23.771Z,19.2
